createdAt,value
2022-12-19T00:01:40.572Z,36.90
2022-12-19T00:03:44.514Z,39.25
2022-12-19T00:05:47.106Z,38.85
2022-12-19T00:07:49.737Z,37.78
2022-12-19T00:09:52.394Z,35.78
2022-12-19T00:11:55.307Z,39.17
2022-12-19T00:13:59.996Z,37.97
2022-12-19T00:16:03.937Z,37.53
2022-12-19T00:18:06.712Z,35.67
2022-12-19T00:20:10.294Z,36.20
2022-12-19T00:22:14.391Z,38.45
2022-12-19T00:24:21.650Z,36.33
2022-12-19T00:26:26.453Z,36.50
2022-12-19T00:28:29.032Z,35.58
2022-12-19T00:30:33.221Z,38.80
2022-12-19T00:32:36.311Z,35.85
2022-12-19T00:34:38.905Z,35.20
2022-12-19T00:36:41.561Z,36.17
2022-12-19T00:38:44.367Z,38.83
2022-12-19T00:40:46.961Z,36.25
2022-12-19T00:42:53.547Z,37.53
2022-12-19T00:44:56.427Z,38.35
2022-12-19T00:47:00.402Z,37.80
2022-12-19T00:49:03.964Z,35.33
2022-12-19T00:51:08.788Z,36.75
2022-12-19T00:53:11.413Z,35.92
2022-12-19T00:55:18.783Z,36.47
2022-12-19T00:57:22.063Z,36.45
2022-12-19T00:59:26.915Z,35.45
2022-12-19T01:01:33.276Z,36.97
2022-12-19T01:03:37.604Z,36.25
2022-12-19T01:05:40.752Z,37.35
2022-12-19T01:07:44.773Z,35.45
2022-12-19T01:09:47.386Z,36.92
2022-12-19T01:12:08.884Z,35.67
2022-12-19T01:14:16.089Z,36.30
2022-12-19T01:16:21.833Z,33.17
2022-12-19T01:18:24.496Z,35.53
2022-12-19T01:20:29.687Z,34.85
2022-12-19T01:22:32.742Z,35.45
2022-12-19T01:24:35.364Z,35.45
2022-12-19T01:26:38.011Z,35.63
2022-12-19T01:28:40.832Z,37.13
2022-12-19T01:30:43.524Z,38.15
2022-12-19T01:32:47.144Z,35.05
2022-12-19T01:34:50.025Z,37.10
2022-12-19T01:36:53.942Z,35.58
2022-12-19T01:38:56.660Z,36.70
2022-12-19T01:40:59.303Z,34.53
2022-12-19T01:43:04.868Z,35.35
2022-12-19T01:45:34.447Z,37.58
2022-12-19T01:47:46.475Z,35.00
2022-12-19T01:49:51.326Z,38.67
2022-12-19T01:51:57.876Z,38.17
2022-12-19T01:54:05.277Z,36.38
2022-12-19T01:56:10.788Z,37.63
2022-12-19T01:58:14.866Z,38.15
2022-12-19T02:00:17.862Z,37.33
2022-12-19T02:02:26.496Z,36.33
2022-12-19T02:04:32.286Z,35.25
2022-12-19T02:06:36.110Z,34.33
2022-12-19T02:08:42.376Z,36.10
2022-12-19T02:10:45.086Z,33.00
2022-12-19T02:12:48.051Z,33.67
2022-12-19T02:14:50.865Z,37.05
2022-12-19T02:17:00.400Z,36.45
2022-12-19T02:19:20.056Z,35.85
2022-12-19T02:21:34.811Z,37.05
2022-12-19T02:24:08.477Z,37.08
2022-12-19T02:26:32.951Z,38.13
2022-12-19T02:29:04.624Z,37.78
2022-12-19T02:31:17.727Z,36.25
2022-12-19T02:33:30.703Z,37.90
2022-12-19T02:35:41.467Z,37.60
2022-12-19T02:37:49.510Z,37.83
2022-12-19T02:39:59.953Z,36.70
2022-12-19T02:42:06.813Z,37.95
2022-12-19T02:44:11.206Z,38.03
2022-12-19T02:46:16.360Z,38.95
2022-12-19T02:48:19.726Z,37.60
2022-12-19T02:50:22.415Z,39.88
2022-12-19T02:52:46.740Z,38.90
2022-12-19T02:54:51.850Z,38.83
2022-12-19T02:56:59.972Z,38.72
2022-12-19T02:59:32.707Z,38.70
2022-12-19T03:01:45.689Z,38.50
2022-12-19T03:04:00.901Z,38.55
2022-12-19T03:06:12.723Z,38.22
2022-12-19T03:10:31.878Z,38.95
2022-12-19T03:12:42.413Z,41.08
2022-12-19T03:14:46.512Z,39.55
2022-12-19T03:16:50.788Z,38.15
2022-12-19T03:19:00.860Z,40.85
2022-12-19T03:21:09.815Z,40.10
2022-12-19T03:23:13.311Z,39.17
2022-12-19T03:25:16.032Z,39.17
2022-12-19T03:27:25.269Z,39.88
2022-12-19T03:29:33.661Z,40.63
2022-12-19T03:31:39.050Z,40.08
2022-12-19T03:33:44.516Z,40.70
2022-12-19T03:35:48.693Z,40.50
2022-12-19T03:37:53.568Z,39.58
2022-12-19T03:39:59.892Z,39.95
2022-12-19T03:42:23.691Z,40.33
2022-12-19T03:44:30.630Z,36.63
2022-12-19T03:46:36.613Z,39.20
2022-12-19T03:48:45.495Z,37.95
2022-12-19T03:50:55.176Z,38.42
2022-12-19T03:53:05.087Z,36.38
2022-12-19T03:55:14.786Z,36.78
2022-12-19T03:57:22.156Z,39.05
2022-12-19T03:59:34.343Z,40.38
2022-12-19T04:01:38.692Z,38.08
2022-12-19T04:03:42.885Z,37.47
2022-12-19T04:05:47.668Z,38.42
2022-12-19T04:07:51.988Z,36.28
2022-12-19T04:09:56.823Z,37.13
2022-12-19T04:12:03.691Z,35.92
2022-12-19T04:14:11.625Z,36.45
2022-12-19T04:16:19.583Z,36.30
2022-12-19T04:18:23.381Z,35.33
2022-12-19T04:20:30.889Z,37.20
2022-12-19T04:22:37.762Z,37.33
2022-12-19T04:24:43.394Z,37.80
2022-12-19T04:26:49.863Z,37.30
2022-12-19T04:28:56.418Z,36.20
2022-12-19T04:31:00.156Z,36.70
2022-12-19T04:33:02.785Z,35.15
2022-12-19T04:35:06.046Z,36.70
2022-12-19T04:37:10.046Z,35.20
2022-12-19T04:39:12.719Z,35.80
2022-12-19T04:41:15.336Z,36.03
2022-12-19T04:43:17.922Z,34.65
2022-12-19T04:45:20.516Z,35.30
2022-12-19T04:47:23.186Z,34.20
2022-12-19T04:49:25.827Z,34.33
2022-12-19T04:51:28.493Z,33.78
2022-12-19T04:53:32.871Z,33.95
2022-12-19T04:55:35.545Z,33.65
2022-12-19T04:57:38.206Z,34.38
2022-12-19T04:59:40.844Z,36.15
2022-12-19T05:01:43.513Z,37.13
2022-12-19T05:03:50.018Z,36.22
2022-12-19T05:06:03.490Z,36.08
2022-12-19T05:08:06.613Z,35.17
2022-12-19T05:10:11.228Z,35.72
2022-12-19T05:12:13.866Z,37.50
2022-12-19T05:14:16.615Z,35.40
2022-12-19T05:16:19.881Z,37.35
2022-12-19T05:18:22.526Z,37.33
2022-12-19T05:20:25.123Z,36.40
2022-12-19T05:22:27.734Z,39.13
2022-12-19T05:24:30.340Z,40.03
2022-12-19T05:26:34.281Z,38.60
2022-12-19T05:28:36.918Z,38.47
2022-12-19T05:30:39.570Z,39.38
2022-12-19T05:32:42.188Z,38.90
2022-12-19T05:34:44.797Z,37.25
2022-12-19T05:36:47.588Z,38.03
2022-12-19T05:38:50.274Z,37.80
2022-12-19T05:40:53.100Z,39.10
2022-12-19T05:42:57.133Z,38.28
2022-12-19T05:44:59.868Z,37.03
2022-12-19T05:47:02.452Z,36.65
2022-12-19T05:49:05.098Z,37.53
2022-12-19T05:51:08.326Z,37.28
2022-12-19T05:53:10.930Z,35.63
2022-12-19T05:55:13.683Z,35.65
2022-12-19T05:57:16.287Z,36.97
2022-12-19T05:59:20.262Z,36.28
2022-12-19T06:01:24.740Z,36.65
2022-12-19T06:03:27.422Z,36.83
2022-12-19T06:05:30.060Z,37.10
2022-12-19T06:07:32.652Z,35.92
2022-12-19T06:09:35.358Z,37.30
2022-12-19T06:11:37.952Z,36.47
2022-12-19T06:13:41.839Z,37.28
2022-12-19T06:15:47.064Z,39.15
2022-12-19T06:17:49.751Z,36.92
2022-12-19T06:19:52.362Z,37.35
2022-12-19T06:21:54.987Z,37.95
2022-12-19T06:23:57.719Z,36.95
2022-12-19T06:26:01.480Z,35.65
2022-12-19T06:28:04.182Z,34.67
2022-12-19T06:30:08.026Z,37.13
2022-12-19T06:32:13.134Z,34.72
2022-12-19T06:34:39.498Z,37.05
2022-12-19T06:36:38.872Z,35.50
2022-12-19T06:38:41.489Z,36.05
2022-12-19T06:41:02.771Z,35.10
2022-12-19T06:43:05.353Z,37.42
2022-12-19T06:45:08.844Z,37.53
2022-12-19T06:47:12.769Z,36.10
2022-12-19T06:49:15.370Z,36.80
2022-12-19T06:51:18.314Z,34.75
2022-12-19T06:53:20.940Z,35.47
2022-12-19T06:55:23.739Z,35.22
2022-12-19T06:57:26.313Z,33.38
2022-12-19T06:59:28.919Z,34.65
2022-12-19T07:01:48.009Z,33.47
2022-12-19T07:03:52.299Z,32.50
2022-12-19T07:05:54.991Z,34.47
2022-12-19T07:07:57.597Z,35.75
2022-12-19T07:10:00.349Z,34.28
2022-12-19T07:12:03.282Z,35.20
2022-12-19T07:14:06.246Z,35.75
2022-12-19T07:16:11.285Z,35.30
2022-12-19T07:18:14.242Z,34.10
2022-12-19T07:20:20.110Z,32.08
2022-12-19T07:22:23.781Z,35.05
2022-12-19T07:24:26.417Z,35.72
2022-12-19T07:26:29.066Z,34.35
2022-12-19T07:28:33.692Z,34.38
2022-12-19T07:30:36.413Z,35.17
2022-12-19T07:32:42.019Z,33.55
2022-12-19T07:34:44.688Z,32.00
2022-12-19T07:36:48.618Z,34.88
2022-12-19T07:38:51.246Z,32.75
2022-12-19T07:40:53.853Z,35.30
2022-12-19T07:43:00.373Z,34.65
2022-12-19T07:45:03.108Z,36.05
2022-12-19T07:47:05.822Z,34.33
2022-12-19T07:49:08.460Z,34.60
2022-12-19T07:51:11.130Z,35.13
2022-12-19T07:53:15.258Z,35.55
2022-12-19T07:55:18.063Z,33.10
2022-12-19T07:57:21.053Z,34.38
2022-12-19T07:59:29.598Z,34.55
2022-12-19T08:01:34.121Z,35.17
2022-12-19T08:03:36.949Z,35.65
2022-12-19T08:05:39.602Z,35.72
2022-12-19T08:07:42.266Z,34.03
2022-12-19T08:09:46.340Z,35.40
2022-12-19T08:11:49.063Z,40.33
2022-12-19T08:13:51.677Z,44.38
2022-12-19T08:15:54.511Z,41.78
2022-12-19T08:17:58.037Z,35.75
2022-12-19T08:20:00.632Z,34.10
2022-12-19T08:22:03.285Z,33.30
2022-12-19T08:24:06.670Z,33.72
2022-12-19T08:26:14.398Z,35.33
2022-12-19T08:28:17.054Z,34.70
2022-12-19T08:30:20.077Z,34.08
2022-12-19T08:32:22.737Z,33.78
2022-12-19T08:34:25.348Z,35.47
2022-12-19T08:36:27.948Z,34.03
2022-12-19T08:38:30.681Z,39.50
2022-12-19T08:40:33.746Z,37.67
2022-12-19T08:42:38.090Z,36.83
2022-12-19T08:44:40.765Z,34.22
2022-12-19T08:46:49.537Z,35.35
2022-12-19T08:48:52.755Z,36.92
2022-12-19T08:50:57.703Z,37.95
2022-12-19T08:53:00.311Z,38.17
2022-12-19T08:55:03.067Z,37.67
2022-12-19T08:57:05.629Z,36.58
2022-12-19T08:59:09.548Z,36.67
2022-12-19T09:01:19.194Z,35.45
2022-12-19T09:03:23.756Z,33.50
2022-12-19T09:05:59.259Z,35.47
2022-12-19T09:07:50.836Z,34.50
2022-12-19T09:09:54.113Z,32.47
2022-12-19T09:11:56.777Z,33.17
2022-12-19T09:13:59.683Z,33.92
2022-12-19T09:16:06.298Z,32.70
2022-12-19T09:18:08.936Z,33.78
2022-12-19T09:20:14.825Z,35.20
2022-12-19T09:22:19.453Z,36.83
2022-12-19T09:24:22.070Z,32.83
2022-12-19T09:26:26.534Z,37.70
2022-12-19T09:28:31.580Z,35.50
2022-12-19T09:30:34.528Z,36.80
2022-12-19T09:32:39.627Z,34.22
2022-12-19T09:34:42.234Z,33.28
2022-12-19T09:36:44.854Z,33.53
2022-12-19T09:38:48.131Z,35.10
2022-12-19T09:41:07.238Z,33.92
2022-12-19T09:43:15.055Z,35.95
2022-12-19T09:45:40.916Z,34.03
2022-12-19T09:47:48.940Z,32.80
2022-12-19T09:49:54.015Z,33.53
2022-12-19T09:52:01.605Z,32.80
2022-12-19T09:54:13.538Z,32.25
2022-12-19T09:56:18.111Z,32.10
2022-12-19T09:58:34.822Z,32.08
2022-12-19T10:00:41.892Z,30.40
2022-12-19T10:02:51.668Z,31.02
2022-12-19T10:05:17.488Z,33.50
2022-12-19T10:08:01.454Z,30.85
2022-12-19T10:11:45.777Z,32.80
2022-12-19T10:12:44.973Z,31.17
2022-12-19T10:15:02.426Z,32.42
2022-12-19T10:17:25.360Z,30.85
2022-12-19T10:19:39.149Z,31.38
2022-12-19T10:22:16.879Z,32.58
2022-12-19T10:24:34.802Z,31.88
2022-12-19T10:26:43.939Z,33.38
2022-12-19T10:29:02.421Z,32.15
2022-12-19T10:31:21.346Z,32.78
2022-12-19T10:33:33.432Z,32.17
2022-12-19T10:35:42.575Z,34.55
2022-12-19T10:37:51.304Z,33.22
2022-12-19T10:40:11.635Z,34.33
2022-12-19T10:42:30.030Z,32.58
2022-12-19T10:44:36.604Z,34.13
2022-12-19T10:46:41.522Z,30.58
2022-12-19T10:48:44.132Z,31.48
2022-12-19T10:50:48.272Z,34.90
2022-12-19T10:52:54.461Z,35.47
2022-12-19T10:54:57.765Z,34.80
2022-12-19T10:57:19.202Z,35.55
2022-12-19T10:59:22.635Z,35.67
2022-12-19T11:01:28.307Z,34.38
2022-12-19T11:03:32.228Z,32.13
2022-12-19T11:05:44.498Z,31.90
2022-12-19T11:08:02.983Z,33.15
2022-12-19T11:12:25.311Z,33.00
2022-12-19T11:16:36.662Z,32.67
2022-12-19T11:21:16.187Z,33.33
2022-12-19T11:29:16.607Z,34.83
2022-12-19T11:29:42.534Z,32.22
2022-12-19T11:29:45.132Z,36.92
2022-12-19T11:30:26.152Z,28.15
2022-12-19T11:30:43.746Z,29.13
2022-12-19T11:32:41.066Z,29.02
2022-12-19T11:34:50.675Z,28.38
2022-12-19T11:36:57.969Z,31.52
2022-12-19T11:39:01.321Z,30.98
2022-12-19T11:41:12.751Z,30.17
2022-12-19T11:45:52.477Z,28.67
2022-12-19T11:48:00.042Z,30.15
2022-12-19T11:50:11.827Z,29.45
2022-12-19T11:54:49.310Z,27.88
2022-12-19T11:56:53.251Z,25.88
2022-12-19T11:59:01.030Z,27.83
2022-12-19T12:01:13.630Z,27.55
2022-12-19T12:03:34.855Z,27.63
2022-12-19T12:05:43.964Z,27.88
2022-12-19T12:09:48.750Z,28.25
2022-12-19T12:15:37.939Z,28.30
2022-12-19T12:20:54.216Z,28.25
2022-12-19T12:29:48.796Z,28.30
2022-12-19T12:31:01.919Z,29.15
2022-12-19T12:31:18.580Z,30.67
2022-12-19T12:31:38.888Z,30.70
2022-12-19T12:31:47.568Z,31.17
2022-12-19T12:31:52.923Z,31.30
2022-12-19T12:35:29.219Z,28.92
2022-12-19T12:39:15.991Z,28.55
2022-12-19T12:41:48.009Z,30.60
2022-12-19T12:44:07.503Z,28.90
2022-12-19T12:46:17.226Z,28.17
2022-12-19T12:48:26.090Z,27.52
2022-12-19T12:50:31.373Z,28.02
2022-12-19T12:52:38.141Z,28.70
2022-12-19T12:54:43.822Z,28.15
2022-12-19T12:56:48.516Z,28.42
2022-12-19T12:59:23.956Z,30.15
2022-12-19T13:01:35.500Z,27.98
2022-12-19T13:03:38.656Z,27.63
2022-12-19T13:05:54.019Z,28.88
2022-12-19T13:07:56.772Z,29.88
2022-12-19T13:10:19.668Z,27.70
2022-12-19T13:12:44.604Z,28.17
2022-12-19T13:14:49.706Z,27.90
2022-12-19T13:16:55.395Z,27.35
2022-12-19T13:19:05.303Z,27.33
2022-12-19T13:21:10.603Z,28.90
2022-12-19T13:23:33.293Z,27.83
2022-12-19T13:25:51.181Z,28.40
2022-12-19T13:27:58.367Z,29.10
2022-12-19T13:30:20.387Z,27.50
2022-12-19T13:32:24.908Z,27.48
2022-12-19T13:34:36.688Z,28.85
2022-12-19T13:39:59.625Z,28.77
2022-12-19T13:42:20.910Z,28.55
2022-12-19T13:44:23.709Z,29.42
2022-12-19T13:46:37.877Z,29.23
2022-12-19T13:48:46.800Z,29.85
2022-12-19T13:50:50.075Z,29.52
2022-12-19T13:52:53.679Z,29.20
2022-12-19T13:54:59.292Z,30.83
2022-12-19T13:57:08.960Z,30.13
2022-12-19T13:59:12.555Z,30.23
2022-12-19T14:01:22.358Z,29.67
2022-12-19T14:03:35.096Z,29.98
2022-12-19T14:06:17.423Z,28.48
2022-12-19T14:08:05.928Z,28.75
2022-12-19T14:11:32.101Z,28.67
2022-12-19T14:13:54.122Z,27.33
2022-12-19T14:15:28.640Z,27.98
2022-12-19T14:17:31.242Z,28.08
2022-12-19T14:19:39.799Z,28.00
2022-12-19T14:22:03.939Z,28.92
2022-12-19T14:24:11.051Z,27.50
2022-12-19T14:28:22.352Z,30.70
2022-12-19T14:28:54.741Z,28.95
2022-12-19T14:31:01.431Z,29.65
2022-12-19T14:33:45.140Z,27.42
2022-12-19T14:36:12.268Z,28.67
2022-12-19T14:39:24.576Z,30.63
2022-12-19T14:40:28.501Z,30.90
2022-12-19T14:43:56.815Z,32.53
2022-12-19T14:54:02.600Z,32.10
2022-12-19T14:54:04.474Z,29.65
2022-12-19T14:54:15.112Z,29.17
2022-12-19T14:54:34.135Z,30.05
2022-12-19T14:56:15.900Z,29.10
2022-12-19T14:58:54.154Z,29.00
2022-12-19T15:01:07.489Z,29.65
2022-12-19T15:05:03.171Z,29.88
2022-12-19T15:07:12.243Z,31.37
2022-12-19T15:10:57.866Z,31.05
2022-12-19T15:14:37.439Z,32.22
2022-12-19T15:14:56.345Z,32.90
2022-12-19T15:16:49.297Z,31.60
2022-12-19T15:18:54.408Z,31.15
2022-12-19T15:20:59.093Z,31.13
2022-12-19T15:23:01.797Z,33.67
2022-12-19T15:25:06.597Z,33.65
2022-12-19T15:27:12.813Z,35.50
2022-12-19T15:29:21.641Z,35.30
2022-12-19T15:31:34.555Z,35.85
2022-12-19T15:33:48.023Z,35.65
2022-12-19T15:36:00.117Z,38.55
2022-12-19T15:38:02.685Z,37.78
2022-12-19T15:40:08.612Z,38.22
2022-12-19T15:42:21.487Z,37.60
2022-12-19T15:44:31.310Z,36.40
2022-12-19T15:46:34.414Z,33.00
2022-12-19T15:48:40.364Z,36.38
2022-12-19T15:50:43.894Z,33.58
2022-12-19T15:52:46.633Z,34.58
2022-12-19T15:54:50.790Z,34.22
2022-12-19T15:56:57.289Z,31.92
2022-12-19T15:59:01.991Z,31.20
2022-12-19T16:01:05.504Z,32.72
2022-12-19T16:03:23.607Z,30.83
2022-12-19T16:05:29.289Z,34.55
2022-12-19T16:07:32.209Z,32.58
2022-12-19T16:09:34.909Z,30.23
2022-12-19T16:11:38.855Z,30.42
2022-12-19T16:13:46.314Z,31.08
2022-12-19T16:15:52.859Z,30.90
2022-12-19T16:17:56.083Z,32.65
2022-12-19T16:19:59.379Z,32.92
2022-12-19T16:22:02.807Z,35.97
2022-12-19T16:24:08.187Z,41.08
2022-12-19T16:26:26.485Z,36.22
2022-12-19T16:28:32.117Z,33.05
2022-12-19T16:30:36.527Z,33.65
2022-12-19T16:32:39.209Z,34.10
2022-12-19T16:34:41.845Z,38.85
2022-12-19T16:36:44.984Z,40.05
2022-12-19T16:38:48.269Z,37.65
2022-12-19T16:40:52.749Z,38.15
2022-12-19T16:43:04.574Z,36.22
2022-12-19T16:47:14.167Z,32.72
2022-12-19T16:49:19.166Z,32.25
2022-12-19T16:51:24.120Z,30.17
2022-12-19T16:53:26.950Z,27.75
2022-12-19T16:55:29.537Z,26.98
2022-12-19T16:57:32.269Z,30.38
2022-12-19T16:59:38.289Z,32.13
2022-12-19T17:01:41.105Z,32.85
2022-12-19T17:03:46.260Z,34.50
2022-12-19T17:05:48.850Z,32.40
2022-12-19T17:07:52.354Z,30.35
2022-12-19T17:09:55.014Z,29.27
2022-12-19T17:12:00.427Z,29.23
2022-12-19T17:14:08.346Z,33.53
2022-12-19T17:16:11.099Z,31.17
2022-12-19T17:18:16.933Z,31.13
2022-12-19T17:20:23.501Z,28.08
2022-12-19T17:22:26.131Z,28.92
2022-12-19T17:24:28.815Z,27.73
2022-12-19T17:26:31.470Z,28.48
2022-12-19T17:28:34.128Z,27.48
2022-12-19T17:30:37.768Z,26.40
2022-12-19T17:32:40.563Z,27.05
2022-12-19T17:34:44.823Z,26.38
2022-12-19T17:36:48.893Z,25.65
2022-12-19T17:38:53.947Z,25.10
2022-12-19T17:40:56.566Z,25.20
2022-12-19T17:42:59.968Z,24.92
2022-12-19T17:45:02.562Z,24.55
2022-12-19T17:47:05.540Z,25.63
2022-12-19T17:49:16.852Z,25.48
2022-12-19T17:51:21.217Z,25.35
2022-12-19T17:53:25.400Z,26.17
2022-12-19T17:55:30.003Z,26.73
2022-12-19T17:57:32.607Z,25.63
2022-12-19T17:59:35.180Z,27.58
2022-12-19T18:01:41.574Z,27.88
2022-12-19T18:03:44.732Z,28.30
2022-12-19T18:05:47.899Z,27.90
2022-12-19T18:07:50.722Z,27.58
2022-12-19T18:09:54.654Z,30.40
2022-12-19T18:11:57.279Z,29.48
2022-12-19T18:13:59.940Z,30.10
2022-12-19T18:16:04.939Z,30.15
2022-12-19T18:18:13.482Z,30.90
2022-12-19T18:20:30.930Z,31.23
2022-12-19T18:22:37.248Z,30.58
2022-12-19T18:24:41.026Z,29.38
2022-12-19T18:26:45.619Z,29.73
2022-12-19T18:28:48.422Z,31.27
2022-12-19T18:30:52.412Z,29.08
2022-12-19T18:32:58.587Z,29.20
2022-12-19T18:35:01.248Z,30.65
2022-12-19T18:37:06.711Z,30.80
2022-12-19T18:39:19.981Z,30.83
2022-12-19T18:41:23.521Z,29.35
2022-12-19T18:43:27.491Z,30.90
2022-12-19T18:45:36.211Z,30.90
2022-12-19T18:47:39.376Z,31.08
2022-12-19T18:49:42.007Z,31.40
2022-12-19T18:51:45.932Z,31.17
2022-12-19T18:53:51.002Z,33.83
2022-12-19T18:55:53.675Z,33.95
2022-12-19T18:57:56.948Z,33.90
2022-12-19T19:00:00.883Z,35.10
2022-12-19T19:02:04.947Z,34.83
2022-12-19T19:04:08.881Z,35.03
2022-12-19T19:06:19.433Z,34.55
2022-12-19T19:08:27.079Z,34.90
2022-12-19T19:10:31.594Z,33.15
2022-12-19T19:12:34.224Z,34.47
2022-12-19T19:14:36.843Z,32.50
2022-12-19T19:16:40.956Z,31.80
2022-12-19T19:18:44.699Z,32.70
2022-12-19T19:20:48.640Z,31.88
2022-12-19T19:22:52.095Z,33.55
2022-12-19T19:24:54.763Z,31.75
2022-12-19T19:26:57.358Z,30.30
2022-12-19T19:29:00.005Z,30.25
2022-12-19T19:31:02.769Z,28.70
2022-12-19T19:33:10.533Z,28.30
2022-12-19T19:35:17.014Z,27.52
2022-12-19T19:37:19.793Z,26.02
2022-12-19T19:39:23.270Z,26.05
2022-12-19T19:41:29.789Z,28.50
2022-12-19T19:43:33.996Z,29.55
2022-12-19T19:45:42.779Z,29.27
2022-12-19T19:47:45.937Z,29.65
2022-12-19T19:49:49.877Z,29.70
2022-12-19T19:51:57.024Z,31.50
2022-12-19T19:54:07.166Z,32.45
2022-12-19T19:56:10.837Z,29.77
2022-12-19T19:58:13.469Z,30.45
2022-12-19T20:00:16.780Z,31.13
2022-12-19T20:02:19.862Z,28.45
2022-12-19T20:04:22.774Z,29.55
2022-12-19T20:06:27.090Z,29.52
2022-12-19T20:08:38.613Z,29.52
2022-12-19T20:10:42.010Z,29.80
2022-12-19T20:12:44.647Z,30.23
2022-12-19T20:14:48.092Z,29.67
2022-12-19T20:16:51.021Z,30.30
2022-12-19T20:18:53.825Z,29.33
2022-12-19T20:20:56.432Z,28.90
2022-12-19T20:23:00.375Z,29.20
2022-12-19T20:25:03.053Z,28.00
2022-12-19T20:27:05.661Z,30.67
2022-12-19T20:29:08.255Z,29.83
2022-12-19T20:31:10.994Z,29.77
2022-12-19T20:33:13.650Z,30.65
2022-12-19T20:35:16.442Z,29.00
2022-12-19T20:37:19.067Z,29.67
2022-12-19T20:39:23.027Z,29.70
2022-12-19T20:41:25.585Z,30.65
2022-12-19T20:43:28.206Z,30.27
2022-12-19T20:45:30.939Z,29.42
2022-12-19T20:47:33.565Z,31.77
2022-12-19T20:49:36.149Z,30.25
2022-12-19T20:51:39.306Z,31.27
2022-12-19T20:53:42.793Z,30.58
2022-12-19T20:55:57.795Z,30.85
2022-12-19T20:58:01.207Z,32.60
2022-12-19T21:00:04.980Z,29.15
2022-12-19T21:02:07.891Z,28.75
2022-12-19T21:04:10.920Z,28.70
2022-12-19T21:06:15.174Z,28.25
2022-12-19T21:08:17.750Z,28.92
2022-12-19T21:10:20.710Z,29.95
2022-12-19T21:12:24.728Z,27.85
2022-12-19T21:14:27.351Z,29.00
2022-12-19T21:16:30.152Z,28.30
2022-12-19T21:18:32.779Z,28.60
2022-12-19T21:20:35.997Z,26.75
2022-12-19T21:22:38.920Z,28.20
2022-12-19T21:24:41.588Z,27.48
2022-12-19T21:26:45.201Z,27.75
2022-12-19T21:28:50.125Z,25.90
2022-12-19T21:30:56.972Z,25.73
2022-12-19T21:32:59.606Z,26.25
2022-12-19T21:35:02.254Z,25.45
2022-12-19T21:37:04.889Z,26.23
2022-12-19T21:39:07.759Z,30.05
2022-12-19T21:41:11.442Z,29.60
2022-12-19T21:43:14.356Z,30.00
2022-12-19T21:45:18.885Z,30.25
2022-12-19T21:47:21.543Z,32.17
2022-12-19T21:49:24.150Z,32.72
2022-12-19T21:51:29.926Z,32.65
2022-12-19T21:53:32.920Z,31.58
2022-12-19T21:55:35.805Z,29.88
2022-12-19T21:57:39.667Z,31.10
2022-12-19T21:59:42.329Z,36.97
2022-12-19T22:01:46.819Z,33.40
2022-12-19T22:03:50.266Z,29.88
2022-12-19T22:05:52.986Z,31.80
2022-12-19T22:07:55.591Z,28.40
2022-12-19T22:09:58.170Z,29.70
2022-12-19T22:12:00.774Z,28.30
2022-12-19T22:14:05.018Z,27.48
2022-12-19T22:16:08.392Z,29.13
2022-12-19T22:18:12.403Z,29.60
2022-12-19T22:20:15.393Z,31.38
2022-12-19T22:22:18.019Z,31.77
2022-12-19T22:24:20.636Z,33.70
2022-12-19T22:26:24.170Z,31.90
2022-12-19T22:28:26.783Z,33.40
2022-12-19T22:30:29.422Z,34.20
2022-12-19T22:32:32.011Z,32.90
2022-12-19T22:34:35.952Z,32.45
2022-12-19T22:36:40.762Z,32.85
2022-12-19T22:38:44.169Z,31.20
2022-12-19T22:40:46.782Z,29.48
2022-12-19T22:42:49.435Z,28.80
2022-12-19T22:44:53.372Z,31.58
2022-12-19T22:46:55.988Z,31.08
2022-12-19T22:49:00.874Z,32.88
2022-12-19T22:51:05.215Z,30.92
2022-12-19T22:53:12.618Z,30.55
2022-12-19T22:55:15.708Z,33.42
2022-12-19T22:57:18.338Z,31.92
2022-12-19T22:59:21.318Z,32.72
2022-12-19T23:01:25.846Z,32.05
2022-12-19T23:03:28.679Z,29.92
2022-12-19T23:05:31.418Z,30.23
2022-12-19T23:07:35.709Z,31.27
2022-12-19T23:09:39.601Z,30.40
2022-12-19T23:11:44.159Z,31.80
2022-12-19T23:13:48.622Z,30.80
2022-12-19T23:15:51.258Z,31.92
2022-12-19T23:17:53.833Z,34.10
2022-12-19T23:19:56.411Z,31.58
2022-12-19T23:21:59.065Z,33.15
2022-12-19T23:24:03.211Z,31.17
2022-12-19T23:26:07.262Z,29.00
2022-12-19T23:28:13.842Z,31.33
2022-12-19T23:30:16.535Z,29.58
2022-12-19T23:32:22.163Z,29.67
2022-12-19T23:34:24.821Z,29.23
2022-12-19T23:38:53.963Z,30.10
2022-12-19T23:41:01.709Z,29.88
2022-12-19T23:43:04.430Z,29.73
2022-12-19T23:45:08.458Z,30.15
2022-12-19T23:47:11.029Z,29.67
2022-12-19T23:49:13.675Z,28.88
2022-12-19T23:51:18.321Z,29.98
2022-12-19T23:53:20.902Z,30.73
2022-12-19T23:55:23.518Z,29.33
2022-12-19T23:57:27.469Z,26.83
2022-12-19T23:59:30.979Z,25.25
